createdAt,value
2023-01-06T00:00:22.003Z,999.29
2023-01-06T00:01:21.953Z,999.21
2023-01-06T00:02:21.983Z,999.24
2023-01-06T00:03:21.929Z,999.19
2023-01-06T00:04:21.977Z,999.25
2023-01-06T00:05:21.907Z,999.15
2023-01-06T00:06:21.923Z,999.20
2023-01-06T00:07:21.879Z,999.15
2023-01-06T00:08:21.881Z,999.22
2023-01-06T00:09:21.875Z,999.18
2023-01-06T00:10:21.871Z,999.19
2023-01-06T00:11:21.956Z,999.22
2023-01-06T00:12:21.849Z,999.14
2023-01-06T00:13:21.847Z,999.08
2023-01-06T00:14:21.847Z,999.16
2023-01-06T00:15:21.825Z,999.12
2023-01-06T00:16:21.862Z,999.05
2023-01-06T00:17:21.819Z,999.10
2023-01-06T00:18:21.821Z,999.08
2023-01-06T00:19:21.810Z,999.11
2023-01-06T00:20:21.801Z,999.07
2023-01-06T00:21:21.857Z,999.05
2023-01-06T00:22:21.786Z,998.98
2023-01-06T00:23:21.753Z,998.98
2023-01-06T00:24:21.741Z,999.03
2023-01-06T00:25:21.744Z,999.02
2023-01-06T00:26:21.763Z,999.02
2023-01-06T00:27:21.797Z,999.01
2023-01-06T00:28:21.731Z,999.00
2023-01-06T00:29:21.714Z,999.05
2023-01-06T00:30:21.720Z,999.03
2023-01-06T00:31:21.777Z,998.91
2023-01-06T00:32:21.730Z,999.05
2023-01-06T00:33:21.689Z,998.94
2023-01-06T00:34:21.713Z,998.92
2023-01-06T00:35:21.664Z,998.92
2023-01-06T00:36:21.749Z,998.92
2023-01-06T00:37:21.648Z,998.86
2023-01-06T00:38:21.652Z,998.89
2023-01-06T00:39:21.645Z,998.87
2023-01-06T00:40:21.624Z,998.82
2023-01-06T00:41:21.610Z,998.82
2023-01-06T00:42:21.634Z,998.83
2023-01-06T00:43:21.722Z,998.83
2023-01-06T00:44:21.585Z,998.79
2023-01-06T00:45:21.589Z,998.74
2023-01-06T00:46:21.621Z,998.79
2023-01-06T00:47:21.591Z,998.79
2023-01-06T00:48:21.558Z,998.74
2023-01-06T00:49:21.556Z,998.82
2023-01-06T00:50:21.545Z,998.81
2023-01-06T00:51:21.551Z,998.82
2023-01-06T00:52:21.577Z,998.82
2023-01-06T00:53:21.539Z,998.78
2023-01-06T00:54:21.512Z,998.77
2023-01-06T00:55:21.504Z,998.78
2023-01-06T00:56:21.511Z,998.80
2023-01-06T00:57:21.533Z,998.84
2023-01-06T00:58:21.490Z,998.80
2023-01-06T00:59:21.545Z,998.79
2023-01-06T01:00:21.483Z,998.81
2023-01-06T01:01:21.568Z,998.76
2023-01-06T01:02:21.688Z,998.82
2023-01-06T01:03:21.482Z,998.80
2023-01-06T01:04:21.450Z,998.76
2023-01-06T01:05:21.451Z,998.82
2023-01-06T01:06:21.441Z,998.75
2023-01-06T01:07:21.461Z,998.76
2023-01-06T01:08:21.412Z,998.78
2023-01-06T01:09:21.400Z,998.82
2023-01-06T01:10:21.392Z,998.66
2023-01-06T01:11:21.402Z,998.71
2023-01-06T01:12:21.409Z,998.78
2023-01-06T01:13:21.369Z,998.73
2023-01-06T01:14:21.372Z,998.76
2023-01-06T01:15:21.438Z,998.75
2023-01-06T01:16:21.350Z,998.75
2023-01-06T01:17:21.373Z,998.74
2023-01-06T01:18:21.328Z,998.73
2023-01-06T01:19:21.326Z,998.76
2023-01-06T01:20:21.327Z,998.76
2023-01-06T01:21:21.335Z,998.67
2023-01-06T01:22:21.343Z,998.71
2023-01-06T01:23:21.312Z,998.76
2023-01-06T01:24:21.286Z,998.77
2023-01-06T01:25:21.279Z,998.76
2023-01-06T01:26:21.265Z,998.69
2023-01-06T01:27:21.286Z,998.78
2023-01-06T01:28:21.247Z,998.76
2023-01-06T01:29:21.239Z,998.74
2023-01-06T01:30:21.238Z,998.75
2023-01-06T01:31:21.339Z,998.71
2023-01-06T01:32:21.253Z,998.73
2023-01-06T01:33:21.218Z,998.70
2023-01-06T01:34:21.216Z,998.63
2023-01-06T01:35:21.194Z,998.65
2023-01-06T01:36:21.198Z,998.69
2023-01-06T01:37:21.206Z,998.75
2023-01-06T01:38:21.192Z,998.70
2023-01-06T01:39:21.170Z,998.74
2023-01-06T01:40:21.177Z,998.68
2023-01-06T01:41:21.159Z,998.61
2023-01-06T01:42:21.198Z,998.62
2023-01-06T01:43:21.144Z,998.63
2023-01-06T01:44:21.147Z,998.66
2023-01-06T01:45:21.118Z,998.64
2023-01-06T01:46:21.130Z,998.61
2023-01-06T01:47:21.207Z,998.63
2023-01-06T01:48:21.110Z,998.64
2023-01-06T01:49:21.110Z,998.60
2023-01-06T01:50:21.111Z,998.56
2023-01-06T01:51:21.117Z,998.55
2023-01-06T01:52:21.080Z,998.57
2023-01-06T01:53:22.058Z,998.57
2023-01-06T01:54:21.062Z,998.59
2023-01-06T01:55:22.045Z,998.56
2023-01-06T01:56:21.026Z,998.58
2023-01-06T01:57:21.052Z,998.57
2023-01-06T01:58:21.017Z,998.51
2023-01-06T01:59:21.017Z,998.56
2023-01-06T02:00:21.010Z,998.55
2023-01-06T02:01:21.112Z,998.55
2023-01-06T02:02:21.236Z,998.55
2023-01-06T02:03:21.110Z,998.54
2023-01-06T02:04:20.976Z,998.52
2023-01-06T02:05:20.963Z,998.54
2023-01-06T02:06:20.955Z,998.53
2023-01-06T02:07:20.986Z,998.61
2023-01-06T02:08:20.940Z,998.60
2023-01-06T02:09:20.952Z,998.50
2023-01-06T02:10:20.931Z,998.51
2023-01-06T02:11:20.921Z,998.51
2023-01-06T02:12:20.935Z,998.50
2023-01-06T02:13:20.919Z,998.52
2023-01-06T02:14:20.887Z,998.54
2023-01-06T02:15:20.887Z,998.51
2023-01-06T02:16:20.945Z,998.54
2023-01-06T02:17:20.908Z,998.48
2023-01-06T02:18:20.893Z,998.44
2023-01-06T02:19:20.950Z,998.45
2023-01-06T02:20:20.864Z,998.48
2023-01-06T02:21:20.874Z,998.39
2023-01-06T02:22:20.888Z,998.46
2023-01-06T02:23:20.836Z,998.32
2023-01-06T02:24:20.829Z,998.39
2023-01-06T02:25:20.823Z,998.38
2023-01-06T02:26:20.806Z,998.32
2023-01-06T02:27:20.845Z,998.38
2023-01-06T02:28:20.815Z,998.39
2023-01-06T02:29:20.779Z,998.32
2023-01-06T02:30:20.786Z,998.35
2023-01-06T02:31:20.775Z,998.26
2023-01-06T02:32:20.825Z,998.30
2023-01-06T02:33:20.760Z,998.30
2023-01-06T02:34:20.747Z,998.22
2023-01-06T02:35:20.815Z,998.19
2023-01-06T02:36:20.744Z,998.25
2023-01-06T02:37:20.753Z,998.17
2023-01-06T02:38:20.731Z,998.18
2023-01-06T02:39:20.718Z,998.18
2023-01-06T02:40:20.704Z,998.20
2023-01-06T02:41:20.682Z,998.09
2023-01-06T02:42:21.734Z,998.08
2023-01-06T02:43:20.693Z,998.09
2023-01-06T02:44:20.696Z,998.07
2023-01-06T02:45:20.677Z,998.05
2023-01-06T02:46:20.744Z,998.09
2023-01-06T02:47:20.669Z,998.08
2023-01-06T02:48:20.635Z,998.09
2023-01-06T02:49:20.632Z,998.07
2023-01-06T02:50:21.603Z,998.05
2023-01-06T02:51:20.687Z,997.97
2023-01-06T02:52:20.630Z,998.08
2023-01-06T02:53:20.598Z,998.02
2023-01-06T02:54:20.584Z,998.09
2023-01-06T02:55:20.597Z,998.04
2023-01-06T02:56:20.584Z,998.05
2023-01-06T02:57:20.604Z,998.03
2023-01-06T02:58:20.558Z,998.04
2023-01-06T02:59:20.575Z,998.09
2023-01-06T03:00:20.583Z,998.05
2023-01-06T03:01:20.613Z,997.99
2023-01-06T03:02:20.598Z,998.05
2023-01-06T03:03:20.531Z,998.06
2023-01-06T03:04:20.534Z,998.03
2023-01-06T03:05:20.508Z,997.98
2023-01-06T03:06:20.504Z,998.02
2023-01-06T03:07:20.597Z,998.03
2023-01-06T03:08:20.486Z,998.12
2023-01-06T03:09:20.484Z,998.05
2023-01-06T03:10:20.495Z,998.03
2023-01-06T03:11:20.458Z,998.02
2023-01-06T03:12:20.489Z,997.96
2023-01-06T03:13:20.454Z,997.93
2023-01-06T03:14:20.443Z,997.97
2023-01-06T03:15:20.478Z,997.94
2023-01-06T03:16:20.500Z,997.94
2023-01-06T03:17:20.441Z,997.94
2023-01-06T03:18:20.425Z,997.85
2023-01-06T03:19:20.410Z,997.91
2023-01-06T03:20:20.391Z,997.87
2023-01-06T03:21:20.410Z,997.93
2023-01-06T03:22:20.399Z,997.85
2023-01-06T03:23:20.445Z,997.85
2023-01-06T03:24:20.376Z,997.73
2023-01-06T03:25:20.367Z,997.72
2023-01-06T03:26:20.355Z,997.78
2023-01-06T03:27:20.360Z,997.74
2023-01-06T03:28:20.341Z,997.69
2023-01-06T03:29:20.326Z,997.72
2023-01-06T03:30:20.316Z,997.65
2023-01-06T03:31:20.372Z,997.74
2023-01-06T03:32:20.344Z,997.68
2023-01-06T03:33:20.305Z,997.71
2023-01-06T03:34:20.292Z,997.67
2023-01-06T03:35:20.279Z,997.70
2023-01-06T03:36:20.274Z,997.68
2023-01-06T03:37:20.311Z,997.68
2023-01-06T03:38:20.308Z,997.68
2023-01-06T03:39:20.329Z,997.66
2023-01-06T03:40:20.259Z,997.60
2023-01-06T03:41:20.253Z,997.62
2023-01-06T03:42:35.280Z,997.64
2023-01-06T03:43:22.221Z,997.47
2023-01-06T03:44:20.215Z,997.58
2023-01-06T03:45:20.220Z,997.55
2023-01-06T03:46:20.218Z,997.55
2023-01-06T03:47:20.223Z,997.51
2023-01-06T03:48:20.199Z,997.53
2023-01-06T03:49:20.176Z,997.51
2023-01-06T03:50:20.161Z,997.52
2023-01-06T03:51:20.157Z,997.47
2023-01-06T03:52:20.176Z,997.51
2023-01-06T03:53:20.146Z,997.43
2023-01-06T03:54:20.135Z,997.45
2023-01-06T03:55:20.184Z,997.42
2023-01-06T03:56:20.101Z,997.49
2023-01-06T03:57:20.143Z,997.43
2023-01-06T03:58:20.129Z,997.51
2023-01-06T03:59:20.099Z,997.46
2023-01-06T04:00:20.086Z,997.48
2023-01-06T04:01:20.160Z,997.43
2023-01-06T04:02:20.098Z,997.50
2023-01-06T04:03:20.120Z,997.46
2023-01-06T04:04:20.056Z,997.49
2023-01-06T04:05:21.095Z,997.44
2023-01-06T04:06:20.053Z,997.51
2023-01-06T04:07:20.065Z,997.47
2023-01-06T04:08:20.049Z,997.46
2023-01-06T04:09:20.030Z,997.49
2023-01-06T04:10:20.027Z,997.50
2023-01-06T04:11:20.087Z,997.49
2023-01-06T04:12:20.026Z,997.49
2023-01-06T04:13:19.995Z,997.46
2023-01-06T04:14:19.980Z,997.41
2023-01-06T04:15:19.981Z,997.39
2023-01-06T04:16:20.001Z,997.39
2023-01-06T04:17:19.963Z,997.34
2023-01-06T04:18:19.950Z,997.31
2023-01-06T04:19:19.932Z,997.29
2023-01-06T04:20:19.915Z,997.30
2023-01-06T04:21:19.924Z,997.28
2023-01-06T04:22:19.905Z,997.30
2023-01-06T04:23:19.926Z,997.29
2023-01-06T04:24:19.885Z,997.34
2023-01-06T04:25:19.896Z,997.31
2023-01-06T04:26:19.922Z,997.35
2023-01-06T04:27:19.943Z,997.35
2023-01-06T04:28:19.927Z,997.26
2023-01-06T04:29:19.891Z,997.39
2023-01-06T04:30:19.853Z,997.30
2023-01-06T04:31:19.938Z,997.36
2023-01-06T04:32:19.840Z,997.38
2023-01-06T04:33:19.870Z,997.21
2023-01-06T04:34:19.815Z,997.27
2023-01-06T04:35:19.819Z,997.21
2023-01-06T04:36:19.815Z,997.26
2023-01-06T04:37:21.433Z,997.22
2023-01-06T04:38:20.816Z,997.21
2023-01-06T04:39:19.802Z,997.22
2023-01-06T04:40:19.774Z,997.16
2023-01-06T04:41:19.758Z,997.21
2023-01-06T04:42:19.754Z,997.19
2023-01-06T04:43:19.846Z,997.17
2023-01-06T04:44:19.750Z,997.23
2023-01-06T04:45:19.733Z,997.15
2023-01-06T04:46:19.732Z,997.12
2023-01-06T04:47:19.748Z,997.16
2023-01-06T04:48:19.745Z,997.19
2023-01-06T04:49:19.704Z,997.22
2023-01-06T04:50:19.695Z,997.28
2023-01-06T04:51:19.693Z,997.19
2023-01-06T04:52:19.681Z,997.18
2023-01-06T04:53:19.707Z,997.13
2023-01-06T04:54:19.684Z,997.22
2023-01-06T04:55:19.688Z,997.15
2023-01-06T04:56:19.660Z,997.21
2023-01-06T04:57:19.659Z,997.15
2023-01-06T04:58:19.674Z,997.13
2023-01-06T04:59:19.703Z,997.21
2023-01-06T05:00:19.666Z,997.21
2023-01-06T05:01:19.709Z,997.21
2023-01-06T05:02:19.628Z,997.21
2023-01-06T05:03:19.644Z,997.26
2023-01-06T05:04:19.593Z,997.14
2023-01-06T05:05:19.604Z,997.23
2023-01-06T05:06:19.581Z,997.25
2023-01-06T05:07:19.573Z,997.24
2023-01-06T05:08:20.591Z,997.28
2023-01-06T05:09:19.580Z,997.29
2023-01-06T05:10:19.569Z,997.28
2023-01-06T05:11:19.551Z,997.30
2023-01-06T05:12:19.541Z,997.29
2023-01-06T05:13:19.571Z,997.25
2023-01-06T05:14:21.301Z,997.14
2023-01-06T05:15:20.573Z,997.20
2023-01-06T05:16:19.555Z,997.20
2023-01-06T05:17:19.539Z,997.23
2023-01-06T05:18:19.527Z,997.19
2023-01-06T05:19:19.483Z,997.15
2023-01-06T05:20:19.477Z,997.12
2023-01-06T05:21:19.479Z,997.12
2023-01-06T05:22:19.492Z,997.08
2023-01-06T05:23:19.494Z,997.15
2023-01-06T05:24:19.449Z,997.08
2023-01-06T05:25:19.463Z,997.11
2023-01-06T05:26:19.465Z,997.19
2023-01-06T05:27:19.434Z,997.20
2023-01-06T05:28:19.453Z,997.09
2023-01-06T05:29:19.406Z,997.14
2023-01-06T05:30:19.407Z,997.20
2023-01-06T05:31:19.417Z,997.16
2023-01-06T05:32:19.385Z,997.14
2023-01-06T05:33:19.398Z,997.15
2023-01-06T05:34:19.363Z,997.24
2023-01-06T05:35:20.361Z,997.11
2023-01-06T05:36:19.353Z,997.05
2023-01-06T05:37:19.342Z,997.03
2023-01-06T05:38:19.333Z,997.09
2023-01-06T05:39:19.374Z,997.09
2023-01-06T05:40:19.339Z,997.10
2023-01-06T05:41:19.309Z,997.14
2023-01-06T05:42:19.323Z,997.21
2023-01-06T05:43:19.308Z,997.20
2023-01-06T05:44:20.807Z,997.07
2023-01-06T05:45:20.299Z,997.12
2023-01-06T05:46:19.294Z,997.09
2023-01-06T05:47:19.256Z,997.08
2023-01-06T05:48:19.274Z,997.23
2023-01-06T05:49:19.299Z,997.17
2023-01-06T05:50:19.260Z,997.21
2023-01-06T05:51:19.238Z,997.17
2023-01-06T05:52:19.245Z,997.18
2023-01-06T05:53:19.233Z,997.21
2023-01-06T05:54:19.233Z,997.23
2023-01-06T05:55:19.214Z,997.25
2023-01-06T05:56:19.206Z,997.24
2023-01-06T05:57:19.204Z,997.22
2023-01-06T05:58:19.180Z,997.16
2023-01-06T05:59:19.196Z,997.20
2023-01-06T06:00:20.180Z,997.17
2023-01-06T06:01:19.173Z,997.15
2023-01-06T06:02:19.174Z,997.13
2023-01-06T06:03:19.204Z,997.23
2023-01-06T06:04:19.152Z,997.20
2023-01-06T06:05:19.106Z,997.17
2023-01-06T06:06:19.106Z,997.21
2023-01-06T06:07:19.102Z,997.17
2023-01-06T06:08:19.092Z,997.22
2023-01-06T06:09:19.097Z,997.20
2023-01-06T06:10:19.065Z,997.15
2023-01-06T06:11:19.057Z,997.24
2023-01-06T06:12:19.054Z,997.21
2023-01-06T06:13:19.048Z,997.17
2023-01-06T06:14:19.059Z,997.20
2023-01-06T06:15:19.033Z,997.18
2023-01-06T06:16:19.054Z,997.17
2023-01-06T06:17:19.054Z,997.09
2023-01-06T06:18:19.030Z,997.03
2023-01-06T06:19:19.085Z,997.06
2023-01-06T06:20:19.992Z,997.13
2023-01-06T06:21:18.979Z,997.11
2023-01-06T06:22:18.993Z,997.11
2023-01-06T06:23:18.994Z,997.09
2023-01-06T06:24:18.955Z,997.11
2023-01-06T06:25:18.958Z,997.19
2023-01-06T06:26:19.941Z,997.12
2023-01-06T06:27:18.945Z,997.12
2023-01-06T06:28:18.935Z,997.22
2023-01-06T06:29:18.965Z,997.14
2023-01-06T06:30:18.910Z,997.30
2023-01-06T06:31:18.957Z,997.28
2023-01-06T06:32:18.909Z,997.28
2023-01-06T06:33:18.919Z,997.30
2023-01-06T06:34:18.912Z,997.31
2023-01-06T06:35:18.949Z,997.25
2023-01-06T06:36:18.875Z,997.25
2023-01-06T06:37:18.860Z,997.17
2023-01-06T06:38:18.863Z,997.14
2023-01-06T06:39:18.864Z,997.20
2023-01-06T06:40:18.831Z,997.20
2023-01-06T06:41:18.831Z,997.22
2023-01-06T06:42:18.819Z,997.28
2023-01-06T06:43:18.838Z,997.29
2023-01-06T06:44:18.832Z,997.26
2023-01-06T06:45:18.805Z,997.24
2023-01-06T06:46:18.807Z,997.25
2023-01-06T06:47:18.785Z,997.29
2023-01-06T06:48:18.787Z,997.32
2023-01-06T06:49:18.797Z,997.29
2023-01-06T06:50:18.764Z,997.29
2023-01-06T06:51:18.766Z,997.32
2023-01-06T06:52:18.750Z,997.28
2023-01-06T06:53:18.734Z,997.40
2023-01-06T06:54:18.756Z,997.31
2023-01-06T06:55:18.721Z,997.32
2023-01-06T06:56:18.714Z,997.46
2023-01-06T06:57:18.706Z,997.39
2023-01-06T06:58:18.713Z,997.45
2023-01-06T06:59:18.718Z,997.37
2023-01-06T07:00:18.677Z,997.42
2023-01-06T07:01:18.828Z,997.43
2023-01-06T07:02:18.773Z,997.39
2023-01-06T07:03:18.655Z,997.36
2023-01-06T07:04:18.715Z,997.42
2023-01-06T07:05:18.651Z,997.41
2023-01-06T07:06:18.650Z,997.42
2023-01-06T07:07:18.705Z,997.47
2023-01-06T07:08:18.633Z,997.32
2023-01-06T07:09:18.635Z,997.43
2023-01-06T07:10:18.608Z,997.42
2023-01-06T07:11:18.615Z,997.42
2023-01-06T07:12:18.602Z,997.51
2023-01-06T07:13:18.588Z,997.48
2023-01-06T07:14:18.602Z,997.53
2023-01-06T07:15:18.568Z,997.48
2023-01-06T07:16:18.587Z,997.51
2023-01-06T07:17:18.615Z,997.56
2023-01-06T07:18:18.554Z,997.51
2023-01-06T07:19:18.579Z,997.56
2023-01-06T07:20:18.544Z,997.56
2023-01-06T07:21:18.543Z,997.61
2023-01-06T07:22:18.526Z,997.59
2023-01-06T07:23:18.585Z,997.67
2023-01-06T07:24:18.528Z,997.64
2023-01-06T07:25:18.496Z,997.70
2023-01-06T07:26:18.483Z,997.68
2023-01-06T07:27:18.484Z,997.61
2023-01-06T07:28:18.468Z,997.64
2023-01-06T07:29:18.504Z,997.68
2023-01-06T07:30:18.482Z,997.72
2023-01-06T07:31:18.507Z,997.72
2023-01-06T07:32:18.452Z,997.71
2023-01-06T07:33:18.434Z,997.71
2023-01-06T07:34:18.470Z,997.83
2023-01-06T07:35:18.437Z,997.78
2023-01-06T07:36:18.411Z,997.76
2023-01-06T07:37:18.406Z,997.76
2023-01-06T07:38:18.391Z,997.80
2023-01-06T07:39:18.495Z,997.84
2023-01-06T07:40:18.385Z,997.74
2023-01-06T07:41:18.388Z,997.75
2023-01-06T07:42:18.365Z,997.65
2023-01-06T07:43:18.370Z,997.61
2023-01-06T07:44:18.388Z,997.68
2023-01-06T07:45:18.408Z,997.64
2023-01-06T07:46:18.399Z,997.57
2023-01-06T07:47:18.324Z,997.55
2023-01-06T07:48:18.337Z,997.56
2023-01-06T07:49:18.340Z,997.63
2023-01-06T07:50:18.295Z,997.63
2023-01-06T07:51:18.301Z,997.62
2023-01-06T07:52:18.284Z,997.65
2023-01-06T07:53:18.280Z,997.58
2023-01-06T07:54:18.267Z,997.62
2023-01-06T07:55:18.297Z,997.69
2023-01-06T07:56:18.266Z,997.68
2023-01-06T07:57:18.244Z,997.73
2023-01-06T07:58:18.243Z,997.77
2023-01-06T07:59:18.276Z,997.67
2023-01-06T08:00:18.291Z,997.70
2023-01-06T08:01:18.346Z,997.70
2023-01-06T08:02:18.249Z,997.67
2023-01-06T08:03:18.238Z,997.66
2023-01-06T08:04:18.204Z,997.69
2023-01-06T08:05:18.218Z,997.69
2023-01-06T08:06:18.171Z,997.58
2023-01-06T08:07:18.172Z,997.62
2023-01-06T08:08:18.162Z,997.69
2023-01-06T08:09:18.160Z,997.68
2023-01-06T08:10:18.175Z,997.63
2023-01-06T08:11:18.220Z,997.68
2023-01-06T08:12:18.131Z,997.58
2023-01-06T08:13:20.350Z,997.60
2023-01-06T08:14:19.125Z,997.51
2023-01-06T08:15:18.127Z,997.57
2023-01-06T08:16:18.130Z,997.56
2023-01-06T08:17:18.081Z,997.61
2023-01-06T08:18:18.080Z,997.56
2023-01-06T08:19:18.071Z,997.62
2023-01-06T08:20:18.089Z,997.58
2023-01-06T08:21:18.081Z,997.65
2023-01-06T08:22:18.119Z,997.64
2023-01-06T08:23:18.062Z,997.71
2023-01-06T08:24:18.034Z,997.64
2023-01-06T08:25:18.050Z,997.57
2023-01-06T08:26:18.023Z,997.51
2023-01-06T08:27:18.097Z,997.45
2023-01-06T08:28:18.011Z,997.49
2023-01-06T08:29:18.990Z,997.44
2023-01-06T08:30:18.012Z,997.38
2023-01-06T08:31:17.997Z,997.39
2023-01-06T08:32:17.985Z,997.40
2023-01-06T08:33:17.973Z,997.45
2023-01-06T08:34:17.964Z,997.54
2023-01-06T08:35:17.971Z,997.52
2023-01-06T08:36:17.951Z,997.51
2023-01-06T08:37:17.952Z,997.55
2023-01-06T08:38:17.933Z,997.54
2023-01-06T08:39:17.927Z,997.65
2023-01-06T08:40:17.936Z,997.68
2023-01-06T08:41:17.910Z,997.62
2023-01-06T08:42:17.896Z,997.67
2023-01-06T08:43:17.982Z,997.58
2023-01-06T08:44:17.896Z,997.66
2023-01-06T08:45:17.902Z,997.63
2023-01-06T08:46:17.904Z,997.64
2023-01-06T08:47:17.860Z,997.58
2023-01-06T08:48:17.843Z,997.56
2023-01-06T08:49:17.844Z,997.54
2023-01-06T08:50:17.858Z,997.48
2023-01-06T08:51:17.821Z,997.52
2023-01-06T08:52:17.821Z,997.49
2023-01-06T08:53:17.810Z,997.52
2023-01-06T08:54:17.805Z,997.49
2023-01-06T08:55:17.819Z,997.44
2023-01-06T08:56:17.799Z,997.46
2023-01-06T08:57:17.785Z,997.46
2023-01-06T08:58:17.767Z,997.44
2023-01-06T08:59:17.909Z,997.46
2023-01-06T09:00:17.782Z,997.48
2023-01-06T09:01:17.849Z,997.51
2023-01-06T09:02:17.800Z,997.46
2023-01-06T09:03:17.725Z,997.47
2023-01-06T09:04:17.718Z,997.55
2023-01-06T09:05:17.767Z,997.51
2023-01-06T09:06:17.715Z,997.59
2023-01-06T09:07:17.695Z,997.47
2023-01-06T09:08:17.703Z,997.44
2023-01-06T09:09:17.721Z,997.42
2023-01-06T09:10:17.674Z,997.50
2023-01-06T09:11:17.663Z,997.42
2023-01-06T09:12:17.662Z,997.40
2023-01-06T09:13:17.649Z,997.40
2023-01-06T09:14:17.646Z,997.45
2023-01-06T09:15:17.763Z,997.40
2023-01-06T09:16:17.679Z,997.46
2023-01-06T09:17:17.664Z,997.34
2023-01-06T09:18:17.614Z,997.43
2023-01-06T09:19:17.606Z,997.48
2023-01-06T09:20:17.634Z,997.50
2023-01-06T09:21:17.588Z,997.50
2023-01-06T09:22:17.607Z,997.50
2023-01-06T09:23:17.590Z,997.49
2023-01-06T09:24:17.569Z,997.49
2023-01-06T09:25:17.584Z,997.53
2023-01-06T09:26:17.555Z,997.51
2023-01-06T09:27:17.540Z,997.55
2023-01-06T09:28:17.550Z,997.60
2023-01-06T09:29:17.527Z,997.54
2023-01-06T09:30:17.556Z,997.55
2023-01-06T09:31:17.544Z,997.49
2023-01-06T09:32:17.521Z,997.47
2023-01-06T09:33:17.511Z,997.56
2023-01-06T09:34:17.510Z,997.54
2023-01-06T09:35:17.539Z,997.60
2023-01-06T09:36:17.478Z,997.61
2023-01-06T09:37:17.507Z,997.69
2023-01-06T09:38:17.462Z,997.80
2023-01-06T09:39:19.449Z,997.76
2023-01-06T09:40:17.464Z,997.77
2023-01-06T09:41:17.447Z,997.82
2023-01-06T09:42:17.427Z,997.87
2023-01-06T09:43:17.418Z,997.89
2023-01-06T09:44:17.419Z,997.87
2023-01-06T09:45:17.448Z,997.97
2023-01-06T09:46:17.427Z,997.96
2023-01-06T09:47:17.464Z,997.91
2023-01-06T09:48:17.378Z,997.86
2023-01-06T09:49:17.371Z,997.85
2023-01-06T09:50:17.392Z,997.89
2023-01-06T09:51:17.355Z,997.90
2023-01-06T09:52:17.366Z,997.91
2023-01-06T09:53:17.342Z,997.93
2023-01-06T09:54:17.331Z,997.84
2023-01-06T09:55:17.351Z,997.88
2023-01-06T09:56:17.326Z,997.88
2023-01-06T09:57:17.311Z,997.91
2023-01-06T09:58:17.300Z,997.91
2023-01-06T09:59:17.322Z,997.97
2023-01-06T10:00:19.033Z,998.05
2023-01-06T10:01:18.312Z,998.01
2023-01-06T10:02:17.347Z,998.08
2023-01-06T10:03:17.332Z,998.05
2023-01-06T10:04:17.284Z,998.02
2023-01-06T10:05:17.277Z,998.02
2023-01-06T10:06:18.113Z,998.07
2023-01-06T10:07:18.264Z,998.00
2023-01-06T10:08:17.254Z,998.03
2023-01-06T10:09:17.258Z,998.00
2023-01-06T10:10:17.246Z,997.95
2023-01-06T10:11:17.205Z,997.96
2023-01-06T10:12:17.218Z,997.96
2023-01-06T10:13:17.200Z,997.92
2023-01-06T10:14:17.177Z,997.93
2023-01-06T10:15:17.196Z,997.83
2023-01-06T10:16:17.233Z,997.86
2023-01-06T10:17:17.154Z,997.88
2023-01-06T10:18:17.142Z,997.92
2023-01-06T10:19:17.207Z,997.87
2023-01-06T10:20:17.165Z,997.81
2023-01-06T10:21:17.148Z,997.81
2023-01-06T10:22:17.125Z,997.78
2023-01-06T10:23:17.109Z,997.79
2023-01-06T10:24:17.123Z,997.78
2023-01-06T10:25:17.124Z,997.81
2023-01-06T10:26:17.089Z,997.87
2023-01-06T10:27:17.078Z,997.81
2023-01-06T10:28:17.060Z,997.75
2023-01-06T10:29:17.064Z,997.74
2023-01-06T10:30:17.086Z,997.66
2023-01-06T10:31:17.078Z,997.69
2023-01-06T10:32:17.035Z,997.74
2023-01-06T10:33:17.036Z,997.78
2023-01-06T10:34:17.028Z,997.85
2023-01-06T10:35:17.118Z,997.81
2023-01-06T10:36:17.018Z,997.77
2023-01-06T10:37:17.014Z,997.76
2023-01-06T10:38:17.020Z,997.68
2023-01-06T10:39:16.981Z,997.69
2023-01-06T10:40:17.003Z,997.66
2023-01-06T10:41:17.011Z,997.65
2023-01-06T10:42:16.960Z,997.62
2023-01-06T10:43:16.943Z,997.58
2023-01-06T10:44:16.948Z,997.67
2023-01-06T10:45:16.947Z,997.57
2023-01-06T10:46:16.993Z,997.58
2023-01-06T10:47:16.931Z,997.59
2023-01-06T10:48:16.910Z,997.59
2023-01-06T10:49:16.962Z,997.61
2023-01-06T10:50:16.898Z,997.54
2023-01-06T10:51:16.997Z,997.55
2023-01-06T10:52:16.884Z,997.54
2023-01-06T10:53:16.957Z,997.59
2023-01-06T10:54:16.884Z,997.55
2023-01-06T10:55:16.853Z,997.62
2023-01-06T10:56:16.878Z,997.57
2023-01-06T10:57:16.855Z,997.51
2023-01-06T10:58:16.839Z,997.47
2023-01-06T10:59:16.844Z,997.49
2023-01-06T11:00:16.817Z,997.46
2023-01-06T11:01:17.015Z,997.39
2023-01-06T11:02:16.957Z,997.33
2023-01-06T11:03:32.303Z,997.29
2023-01-06T11:04:18.795Z,997.30
2023-01-06T11:05:16.786Z,997.33
2023-01-06T11:06:16.817Z,997.30
2023-01-06T11:07:17.032Z,997.24
2023-01-06T11:08:16.761Z,997.33
2023-01-06T11:09:16.752Z,997.34
2023-01-06T11:10:16.746Z,997.27
2023-01-06T11:11:27.874Z,997.23
2023-01-06T11:12:18.729Z,997.24
2023-01-06T11:13:16.708Z,997.31
2023-01-06T11:14:17.709Z,997.11
2023-01-06T11:15:16.716Z,997.27
2023-01-06T11:16:16.746Z,997.20
2023-01-06T11:17:16.806Z,997.23
2023-01-06T11:18:16.705Z,997.19
2023-01-06T11:19:16.676Z,997.19
2023-01-06T11:20:16.777Z,997.16
2023-01-06T11:21:16.693Z,997.06
2023-01-06T11:22:18.709Z,997.14
2023-01-06T11:23:16.723Z,997.03
2023-01-06T11:24:16.649Z,997.07
2023-01-06T11:25:16.626Z,997.09
2023-01-06T11:26:16.652Z,997.09
2023-01-06T11:27:16.661Z,997.03
2023-01-06T11:28:16.642Z,997.08
2023-01-06T11:29:16.604Z,997.06
2023-01-06T11:30:16.614Z,997.06
2023-01-06T11:31:16.720Z,997.05
2023-01-06T11:32:16.581Z,997.06
2023-01-06T11:33:16.571Z,997.11
2023-01-06T11:34:16.569Z,997.03
2023-01-06T11:35:16.561Z,997.08
2023-01-06T11:36:16.580Z,997.06
2023-01-06T11:37:16.535Z,997.06
2023-01-06T11:38:16.541Z,997.04
2023-01-06T11:39:16.589Z,996.99
2023-01-06T11:40:16.598Z,997.07
2023-01-06T11:41:16.537Z,997.04
2023-01-06T11:42:16.504Z,997.14
2023-01-06T11:43:16.500Z,997.12
2023-01-06T11:44:16.492Z,997.12
2023-01-06T11:45:16.484Z,997.04
2023-01-06T11:46:16.565Z,997.11
2023-01-06T11:47:16.491Z,996.98
2023-01-06T11:48:16.464Z,997.11
2023-01-06T11:49:17.174Z,996.99
2023-01-06T11:50:16.445Z,997.07
2023-01-06T11:51:16.455Z,997.04
2023-01-06T11:52:16.460Z,997.08
2023-01-06T11:53:16.424Z,997.05
2023-01-06T11:54:16.418Z,997.04
2023-01-06T11:55:16.492Z,997.13
2023-01-06T11:56:16.399Z,997.17
2023-01-06T11:57:16.416Z,997.15
2023-01-06T11:58:16.385Z,997.09
2023-01-06T11:59:16.373Z,996.99
2023-01-06T12:00:16.378Z,997.03
2023-01-06T12:01:16.389Z,997.10
2023-01-06T12:02:16.417Z,997.08
2023-01-06T12:03:16.417Z,997.09
2023-01-06T12:04:16.351Z,997.17
2023-01-06T12:05:16.341Z,997.17
2023-01-06T12:06:16.338Z,997.23
2023-01-06T12:07:16.351Z,997.18
2023-01-06T12:08:16.315Z,997.27
2023-01-06T12:09:16.318Z,997.22
2023-01-06T12:10:16.295Z,997.28
2023-01-06T12:11:16.393Z,997.28
2023-01-06T12:12:16.305Z,997.26
2023-01-06T12:13:16.272Z,997.27
2023-01-06T12:14:28.147Z,997.28
2023-01-06T12:15:18.259Z,997.21
2023-01-06T12:16:16.326Z,997.17
2023-01-06T12:17:16.413Z,997.17
2023-01-06T12:18:16.227Z,997.19
2023-01-06T12:19:16.219Z,997.17
2023-01-06T12:20:16.204Z,997.19
2023-01-06T12:21:16.209Z,997.20
2023-01-06T12:22:16.244Z,997.16
2023-01-06T12:23:16.245Z,997.20
2023-01-06T12:24:16.185Z,997.27
2023-01-06T12:25:16.473Z,997.23
2023-01-06T12:26:16.192Z,997.24
2023-01-06T12:27:16.296Z,997.19
2023-01-06T12:28:16.158Z,997.19